DAL1620 KAUS-KATL
Flight info
| Callsign | DAL1620 |
|---|---|
| Flight time | 1h 38m |
| Altitude | 35000 |
| Route | ILEXY4 ZENZI LFK AEX MERDN ORRKK HOBTT3 |
| Aircraft | A321/M-SDE3FGHIRWY/LB1 |
Departure
| Time | 2026-05-07 21:37 |
|---|---|
| Airport | Austin Bergstrom International Airport (KAUS) |
Arrival
| Time | 2026-05-07 23:15 |
|---|---|
| Airport | Hartsfield Jackson Atlanta International Airport (KATL) |
| Time | Latitude | Longitude | Altitude | Speed | Heading |
|---|---|---|---|---|---|
| 2026-05-07 21:22 | 30.20177 | -97.66266 | 549 ft | 0 kts | 338° |
| 2026-05-07 21:27 | 30.20170 | -97.66263 | 549 ft | 2 kts | 339° |
| 2026-05-07 21:27 | 30.20155 | -97.66260 | 549 ft | 2 kts | 359° |
| 2026-05-07 21:27 | 30.20140 | -97.66261 | 549 ft | 2 kts | 13° |
| 2026-05-07 21:27 | 30.20126 | -97.66267 | 549 ft | 2 kts | 28° |
| 2026-05-07 21:28 | 30.20113 | -97.66277 | 549 ft | 2 kts | 43° |
| 2026-05-07 21:28 | 30.20103 | -97.66290 | 549 ft | 2 kts | 58° |
| 2026-05-07 21:28 | 30.20097 | -97.66305 | 549 ft | 2 kts | 73° |
| 2026-05-07 21:28 | 30.20094 | -97.66322 | 549 ft | 0 kts | 86° |
| 2026-05-07 21:29 | 30.20094 | -97.66329 | 549 ft | 1 kts | 89° |
| 2026-05-07 21:29 | 30.20094 | -97.66330 | 549 ft | 0 kts | 89° |
| 2026-05-07 21:30 | 30.20094 | -97.66328 | 549 ft | 0 kts | 89° |
| 2026-05-07 21:30 | 30.20093 | -97.66323 | 549 ft | 0 kts | 114° |
| 2026-05-07 21:30 | 30.20083 | -97.66322 | 549 ft | 3 kts | 198° |
| 2026-05-07 21:31 | 30.20034 | -97.66362 | 549 ft | 12 kts | 223° |
| 2026-05-07 21:31 | 30.19954 | -97.66389 | 549 ft | 12 kts | 179° |
| 2026-05-07 21:31 | 30.19866 | -97.66377 | 549 ft | 12 kts | 147° |
| 2026-05-07 21:31 | 30.19841 | -97.66286 | 549 ft | 12 kts | 88° |
| 2026-05-07 21:32 | 30.19845 | -97.66181 | 549 ft | 13 kts | 87° |
| 2026-05-07 21:32 | 30.19848 | -97.66068 | 549 ft | 14 kts | 89° |
| 2026-05-07 21:32 | 30.19796 | -97.65985 | 549 ft | 15 kts | 176° |
| 2026-05-07 21:32 | 30.19686 | -97.65982 | 549 ft | 16 kts | 178° |
| 2026-05-07 21:33 | 30.19566 | -97.65979 | 549 ft | 17 kts | 179° |
| 2026-05-07 21:33 | 30.19440 | -97.65976 | 549 ft | 18 kts | 178° |
| 2026-05-07 21:33 | 30.19304 | -97.65972 | 549 ft | 19 kts | 179° |
| 2026-05-07 21:33 | 30.19164 | -97.65968 | 549 ft | 20 kts | 179° |
| 2026-05-07 21:34 | 30.19019 | -97.65965 | 549 ft | 21 kts | 178° |
| 2026-05-07 21:34 | 30.18869 | -97.65960 | 549 ft | 21 kts | 179° |
| 2026-05-07 21:34 | 30.18715 | -97.65957 | 549 ft | 22 kts | 179° |
| 2026-05-07 21:34 | 30.18558 | -97.65951 | 549 ft | 22 kts | 178° |
| 2026-05-07 21:35 | 30.18400 | -97.65948 | 549 ft | 23 kts | 179° |
| 2026-05-07 21:35 | 30.18237 | -97.65945 | 549 ft | 23 kts | 179° |
| 2026-05-07 21:35 | 30.18075 | -97.65940 | 549 ft | 23 kts | 178° |
| 2026-05-07 21:35 | 30.17944 | -97.65929 | 549 ft | 14 kts | 153° |
| 2026-05-07 21:36 | 30.17919 | -97.65823 | 549 ft | 14 kts | 88° |
| 2026-05-07 21:36 | 30.17951 | -97.65729 | 549 ft | 13 kts | 17° |
| 2026-05-07 21:36 | 30.18115 | -97.65731 | 549 ft | 49 kts | 359° |
| 2026-05-07 21:36 | 30.18691 | -97.65746 | 549 ft | 113 kts | 359° |
| 2026-05-07 21:37 | 30.19672 | -97.65775 | 656 ft | 154 kts | 2° |
| 2026-05-07 21:37 | 30.20684 | -97.65799 | 1378 ft | 144 kts | 3° |
| 2026-05-07 21:37 | 30.21679 | -97.65787 | 1955 ft | 146 kts | 11° |
| 2026-05-07 21:37 | 30.22531 | -97.65237 | 2329 ft | 148 kts | 59° |
| 2026-05-07 21:38 | 30.22866 | -97.64050 | 2594 ft | 161 kts | 73° |
| 2026-05-07 21:38 | 30.23154 | -97.62750 | 2866 ft | 174 kts | 73° |
| 2026-05-07 21:38 | 30.23505 | -97.61350 | 3149 ft | 188 kts | 72° |
| 2026-05-07 21:38 | 30.23913 | -97.59858 | 3435 ft | 203 kts | 71° |
| 2026-05-07 21:39 | 30.24375 | -97.58250 | 3699 ft | 221 kts | 70° |
| 2026-05-07 21:39 | 30.24901 | -97.56481 | 3965 ft | 241 kts | 70° |
| 2026-05-07 21:39 | 30.25465 | -97.54616 | 4314 ft | 257 kts | 70° |
| 2026-05-07 21:39 | 30.26071 | -97.52631 | 4870 ft | 266 kts | 70° |
| 2026-05-07 21:40 | 30.26696 | -97.50594 | 5489 ft | 272 kts | 70° |
| 2026-05-07 21:40 | 30.27332 | -97.48518 | 6077 ft | 280 kts | 70° |
| 2026-05-07 21:40 | 30.27989 | -97.46384 | 6664 ft | 286 kts | 70° |
| 2026-05-07 21:40 | 30.28664 | -97.44188 | 7272 ft | 292 kts | 70° |
| 2026-05-07 21:41 | 30.29350 | -97.41956 | 7867 ft | 298 kts | 70° |
| 2026-05-07 21:41 | 30.30046 | -97.39692 | 8464 ft | 303 kts | 70° |
| 2026-05-07 21:41 | 30.30755 | -97.37390 | 9055 ft | 308 kts | 70° |
| 2026-05-07 21:41 | 30.31473 | -97.35053 | 9634 ft | 313 kts | 70° |
| 2026-05-07 21:42 | 30.32213 | -97.32644 | 10196 ft | 319 kts | 71° |
| 2026-05-07 21:42 | 30.32979 | -97.30149 | 10525 ft | 334 kts | 71° |
| 2026-05-07 21:42 | 30.33770 | -97.27564 | 10798 ft | 350 kts | 71° |
| 2026-05-07 21:42 | 30.34591 | -97.24884 | 11072 ft | 365 kts | 71° |
| 2026-05-07 21:43 | 30.35408 | -97.22008 | 11362 ft | 378 kts | 77° |
| 2026-05-07 21:43 | 30.35836 | -97.19006 | 11820 ft | 383 kts | 87° |
| 2026-05-07 21:43 | 30.36191 | -97.15929 | 12340 ft | 389 kts | 76° |
| 2026-05-07 21:43 | 30.37150 | -97.13035 | 12900 ft | 392 kts | 66° |
| 2026-05-07 21:44 | 30.38317 | -97.10150 | 13444 ft | 396 kts | 65° |
| 2026-05-07 21:44 | 30.39474 | -97.07245 | 13950 ft | 400 kts | 66° |
| 2026-05-07 21:44 | 30.40588 | -97.04287 | 14458 ft | 404 kts | 67° |
| 2026-05-07 21:44 | 30.41678 | -97.01253 | 14953 ft | 408 kts | 68° |
| 2026-05-07 21:45 | 30.42742 | -96.98203 | 15441 ft | 412 kts | 68° |
| 2026-05-07 21:45 | 30.43799 | -96.95110 | 15943 ft | 415 kts | 68° |
| 2026-05-07 21:45 | 30.44859 | -96.91976 | 16403 ft | 419 kts | 68° |
| 2026-05-07 21:45 | 30.45917 | -96.88827 | 16856 ft | 423 kts | 68° |
| 2026-05-07 21:46 | 30.46989 | -96.85631 | 17327 ft | 427 kts | 68° |
| 2026-05-07 21:46 | 30.48059 | -96.82433 | 17804 ft | 430 kts | 68° |
| 2026-05-07 21:46 | 30.49145 | -96.79192 | 18228 ft | 433 kts | 68° |
| 2026-05-07 21:46 | 30.50240 | -96.75913 | 18584 ft | 437 kts | 68° |
| 2026-05-07 21:47 | 30.51328 | -96.72649 | 18968 ft | 439 kts | 68° |
| 2026-05-07 21:47 | 30.52435 | -96.69325 | 19448 ft | 439 kts | 68° |
| 2026-05-07 21:47 | 30.53529 | -96.66037 | 19928 ft | 438 kts | 68° |
| 2026-05-07 21:47 | 30.54614 | -96.62770 | 20296 ft | 441 kts | 68° |
| 2026-05-07 21:48 | 30.55729 | -96.59407 | 20652 ft | 444 kts | 68° |
| 2026-05-07 21:48 | 30.56844 | -96.56048 | 21005 ft | 447 kts | 68° |
| 2026-05-07 21:48 | 30.57958 | -96.52683 | 21366 ft | 449 kts | 68° |
| 2026-05-07 21:48 | 30.59075 | -96.49307 | 21684 ft | 453 kts | 68° |
| 2026-05-07 21:49 | 30.60206 | -96.45882 | 22029 ft | 455 kts | 68° |
| 2026-05-07 21:49 | 30.61333 | -96.42467 | 22373 ft | 457 kts | 68° |
| 2026-05-07 21:49 | 30.62477 | -96.38991 | 22700 ft | 460 kts | 68° |
| 2026-05-07 21:49 | 30.63626 | -96.35505 | 23032 ft | 463 kts | 68° |
| 2026-05-07 21:50 | 30.64776 | -96.32017 | 23355 ft | 465 kts | 69° |
| 2026-05-07 21:50 | 30.65931 | -96.28500 | 23673 ft | 467 kts | 69° |
| 2026-05-07 21:50 | 30.67079 | -96.25000 | 23989 ft | 470 kts | 69° |
| 2026-05-07 21:50 | 30.68244 | -96.21445 | 24300 ft | 472 kts | 69° |
| 2026-05-07 21:51 | 30.69410 | -96.17886 | 24606 ft | 475 kts | 69° |
| 2026-05-07 21:51 | 30.70585 | -96.14299 | 24917 ft | 477 kts | 69° |
| 2026-05-07 21:51 | 30.71770 | -96.10671 | 25212 ft | 480 kts | 69° |
| 2026-05-07 21:51 | 30.72943 | -96.07078 | 25534 ft | 483 kts | 69° |
| 2026-05-07 21:52 | 30.74146 | -96.03386 | 25883 ft | 486 kts | 69° |
| 2026-05-07 21:52 | 30.75335 | -95.99732 | 26224 ft | 488 kts | 69° |
| 2026-05-07 21:52 | 30.76544 | -95.96023 | 26546 ft | 491 kts | 69° |
| 2026-05-07 21:52 | 30.77736 | -95.92352 | 26841 ft | 494 kts | 69° |
| 2026-05-07 21:53 | 30.78956 | -95.88594 | 27131 ft | 497 kts | 69° |
| 2026-05-07 21:53 | 30.80179 | -95.84824 | 27438 ft | 500 kts | 69° |
| 2026-05-07 21:53 | 30.81403 | -95.81042 | 27746 ft | 502 kts | 69° |
| 2026-05-07 21:53 | 30.82633 | -95.77247 | 28019 ft | 506 kts | 69° |
| 2026-05-07 21:54 | 30.83868 | -95.73423 | 28288 ft | 509 kts | 70° |
| 2026-05-07 21:54 | 30.85108 | -95.69586 | 28567 ft | 511 kts | 70° |
| 2026-05-07 21:54 | 30.86355 | -95.65713 | 28864 ft | 513 kts | 70° |
| 2026-05-07 21:54 | 30.87615 | -95.61800 | 29098 ft | 517 kts | 70° |
| 2026-05-07 21:55 | 30.88865 | -95.57912 | 29342 ft | 520 kts | 69° |
| 2026-05-07 21:55 | 30.90141 | -95.53941 | 29601 ft | 522 kts | 69° |
| 2026-05-07 21:55 | 30.91415 | -95.49975 | 29925 ft | 523 kts | 70° |
| 2026-05-07 21:55 | 30.92671 | -95.46053 | 30285 ft | 523 kts | 70° |
| 2026-05-07 21:56 | 30.93949 | -95.42059 | 30652 ft | 523 kts | 70° |
| 2026-05-07 21:56 | 30.95221 | -95.38082 | 30986 ft | 524 kts | 69° |
| 2026-05-07 21:56 | 30.96496 | -95.34089 | 31315 ft | 524 kts | 70° |
| 2026-05-07 21:56 | 30.97790 | -95.30045 | 31648 ft | 524 kts | 70° |
| 2026-05-07 21:57 | 30.99081 | -95.25987 | 31968 ft | 524 kts | 70° |
| 2026-05-07 21:57 | 31.00345 | -95.22020 | 32261 ft | 524 kts | 70° |
| 2026-05-07 21:57 | 31.01608 | -95.18044 | 32546 ft | 525 kts | 70° |
| 2026-05-07 21:57 | 31.02881 | -95.14032 | 32802 ft | 526 kts | 70° |
| 2026-05-07 21:58 | 31.04147 | -95.10036 | 33069 ft | 527 kts | 70° |
| 2026-05-07 21:58 | 31.05411 | -95.06036 | 33364 ft | 527 kts | 70° |
| 2026-05-07 21:58 | 31.06669 | -95.02055 | 33623 ft | 528 kts | 70° |
| 2026-05-07 21:58 | 31.07943 | -94.98018 | 33812 ft | 531 kts | 70° |
| 2026-05-07 21:59 | 31.09230 | -94.93938 | 34026 ft | 533 kts | 70° |
| 2026-05-07 21:59 | 31.10506 | -94.89891 | 34247 ft | 534 kts | 70° |
| 2026-05-07 21:59 | 31.11787 | -94.85816 | 34454 ft | 535 kts | 70° |
| 2026-05-07 21:59 | 31.13076 | -94.81706 | 34671 ft | 536 kts | 69° |
| 2026-05-07 22:00 | 31.14290 | -94.77615 | 34878 ft | 537 kts | 72° |
| 2026-05-07 22:00 | 31.15313 | -94.73422 | 34984 ft | 539 kts | 77° |
| 2026-05-07 22:00 | 31.16612 | -94.64871 | 34990 ft | 537 kts | 86° |
| 2026-05-07 22:01 | 31.17099 | -94.56191 | 34986 ft | 535 kts | 90° |
| 2026-05-07 22:01 | 31.17467 | -94.47496 | 34982 ft | 537 kts | 89° |
| 2026-05-07 22:02 | 31.17863 | -94.38828 | 34979 ft | 537 kts | 90° |
| 2026-05-07 22:02 | 31.18281 | -94.30117 | 34980 ft | 536 kts | 90° |
| 2026-05-07 22:03 | 31.18692 | -94.21446 | 34984 ft | 536 kts | 90° |
| 2026-05-07 22:03 | 31.19103 | -94.12749 | 34986 ft | 536 kts | 90° |
| 2026-05-07 22:04 | 31.19505 | -94.04037 | 34986 ft | 536 kts | 90° |
| 2026-05-07 22:04 | 31.19900 | -93.95376 | 34990 ft | 536 kts | 90° |
| 2026-05-07 22:05 | 31.20292 | -93.86705 | 34989 ft | 536 kts | 90° |
| 2026-05-07 22:05 | 31.20678 | -93.77959 | 34989 ft | 536 kts | 90° |
| 2026-05-07 22:06 | 31.21057 | -93.69228 | 34989 ft | 535 kts | 89° |
| 2026-05-07 22:06 | 31.21429 | -93.60593 | 34988 ft | 535 kts | 90° |
| 2026-05-07 22:07 | 31.21795 | -93.51906 | 34992 ft | 536 kts | 90° |
| 2026-05-07 22:07 | 31.22158 | -93.43189 | 34992 ft | 536 kts | 90° |
| 2026-05-07 22:08 | 31.22514 | -93.34506 | 34989 ft | 537 kts | 90° |
| 2026-05-07 22:08 | 31.22864 | -93.25810 | 34989 ft | 536 kts | 90° |
| 2026-05-07 22:09 | 31.23211 | -93.17085 | 34990 ft | 537 kts | 90° |
| 2026-05-07 22:09 | 31.23547 | -93.08370 | 34986 ft | 537 kts | 90° |
| 2026-05-07 22:10 | 31.23879 | -92.99683 | 34983 ft | 537 kts | 90° |
| 2026-05-07 22:10 | 31.24208 | -92.90987 | 34989 ft | 536 kts | 90° |
| 2026-05-07 22:11 | 31.24529 | -92.82266 | 34989 ft | 536 kts | 90° |
| 2026-05-07 22:11 | 31.24845 | -92.73577 | 34992 ft | 537 kts | 90° |
| 2026-05-07 22:12 | 31.25154 | -92.64903 | 34998 ft | 536 kts | 90° |
| 2026-05-07 22:12 | 31.25566 | -92.56239 | 34998 ft | 539 kts | 86° |
| 2026-05-07 22:13 | 31.26801 | -92.47588 | 35004 ft | 540 kts | 77° |
| 2026-05-07 22:13 | 31.29013 | -92.39239 | 35007 ft | 539 kts | 68° |
| 2026-05-07 22:14 | 31.31701 | -92.31014 | 35002 ft | 539 kts | 68° |
| 2026-05-07 22:14 | 31.34376 | -92.22826 | 35005 ft | 539 kts | 68° |
| 2026-05-07 22:15 | 31.37002 | -92.14629 | 35006 ft | 539 kts | 69° |
| 2026-05-07 22:15 | 31.39617 | -92.06395 | 35002 ft | 540 kts | 69° |
| 2026-05-07 22:16 | 31.42220 | -91.98183 | 34995 ft | 540 kts | 69° |
| 2026-05-07 22:16 | 31.44828 | -91.89932 | 35001 ft | 540 kts | 69° |
| 2026-05-07 22:17 | 31.47433 | -91.81675 | 35000 ft | 541 kts | 69° |
| 2026-05-07 22:17 | 31.50024 | -91.73423 | 35000 ft | 542 kts | 69° |
| 2026-05-07 22:18 | 31.53921 | -91.60996 | 34995 ft | 543 kts | 69° |
| 2026-05-07 22:19 | 31.56522 | -91.52673 | 34998 ft | 542 kts | 69° |
| 2026-05-07 22:19 | 31.59097 | -91.44394 | 35003 ft | 543 kts | 68° |
| 2026-05-07 22:20 | 31.61686 | -91.36074 | 35011 ft | 543 kts | 69° |
| 2026-05-07 22:20 | 31.64291 | -91.27692 | 35011 ft | 544 kts | 69° |
| 2026-05-07 22:21 | 31.66868 | -91.19355 | 35010 ft | 544 kts | 69° |
| 2026-05-07 22:21 | 31.69415 | -91.11078 | 35010 ft | 544 kts | 69° |
| 2026-05-07 22:22 | 31.72002 | -91.02663 | 35009 ft | 544 kts | 69° |
| 2026-05-07 22:22 | 31.74571 | -90.94292 | 35009 ft | 545 kts | 69° |
| 2026-05-07 22:23 | 31.77142 | -90.85904 | 35001 ft | 545 kts | 69° |
| 2026-05-07 22:23 | 31.79696 | -90.77532 | 35001 ft | 545 kts | 69° |
| 2026-05-07 22:24 | 31.82247 | -90.69137 | 34997 ft | 546 kts | 69° |
| 2026-05-07 22:24 | 31.84800 | -90.60715 | 35004 ft | 547 kts | 69° |
| 2026-05-07 22:25 | 31.87345 | -90.52307 | 35008 ft | 547 kts | 69° |
| 2026-05-07 22:25 | 31.89876 | -90.43914 | 35005 ft | 546 kts | 69° |
| 2026-05-07 22:26 | 31.92416 | -90.35484 | 35008 ft | 547 kts | 68° |
| 2026-05-07 22:26 | 31.94954 | -90.27029 | 35004 ft | 548 kts | 70° |
| 2026-05-07 22:27 | 31.97482 | -90.18578 | 35004 ft | 548 kts | 69° |
| 2026-05-07 22:27 | 31.99988 | -90.10162 | 35009 ft | 548 kts | 69° |
| 2026-05-07 22:28 | 32.02522 | -90.01676 | 35011 ft | 549 kts | 70° |
| 2026-05-07 22:28 | 32.05032 | -89.93193 | 35012 ft | 549 kts | 69° |
| 2026-05-07 22:29 | 32.07546 | -89.84711 | 35014 ft | 549 kts | 69° |
| 2026-05-07 22:29 | 32.10058 | -89.76211 | 35014 ft | 549 kts | 70° |
| 2026-05-07 22:30 | 32.12563 | -89.67682 | 35013 ft | 550 kts | 69° |
| 2026-05-07 22:30 | 32.15068 | -89.59142 | 35010 ft | 550 kts | 69° |
| 2026-05-07 22:31 | 32.17543 | -89.50678 | 35011 ft | 550 kts | 69° |
| 2026-05-07 22:31 | 32.20045 | -89.42113 | 35010 ft | 550 kts | 69° |
| 2026-05-07 22:32 | 32.22546 | -89.33523 | 35004 ft | 550 kts | 69° |
| 2026-05-07 22:32 | 32.25038 | -89.24934 | 35009 ft | 551 kts | 69° |
| 2026-05-07 22:33 | 32.27526 | -89.16344 | 35010 ft | 552 kts | 70° |
| 2026-05-07 22:33 | 32.29998 | -89.07749 | 35015 ft | 552 kts | 69° |
| 2026-05-07 22:34 | 32.32456 | -88.99216 | 35014 ft | 552 kts | 69° |
| 2026-05-07 22:34 | 32.34922 | -88.90623 | 35011 ft | 551 kts | 69° |
| 2026-05-07 22:35 | 32.37339 | -88.82110 | 35016 ft | 551 kts | 71° |
| 2026-05-07 22:35 | 32.39278 | -88.73327 | 35015 ft | 553 kts | 76° |
| 2026-05-07 22:36 | 32.40946 | -88.64478 | 35013 ft | 553 kts | 76° |
| 2026-05-07 22:36 | 32.42627 | -88.55615 | 35012 ft | 553 kts | 76° |
| 2026-05-07 22:37 | 32.44309 | -88.46771 | 35013 ft | 553 kts | 76° |
| 2026-05-07 22:37 | 32.45998 | -88.37904 | 35013 ft | 553 kts | 76° |
| 2026-05-07 22:38 | 32.47694 | -88.28978 | 35003 ft | 552 kts | 77° |
| 2026-05-07 22:38 | 32.49381 | -88.20075 | 35005 ft | 553 kts | 77° |
| 2026-05-07 22:39 | 32.51047 | -88.11199 | 35002 ft | 552 kts | 76° |
| 2026-05-07 22:39 | 32.52714 | -88.02312 | 35002 ft | 552 kts | 76° |
| 2026-05-07 22:40 | 32.54378 | -87.93443 | 34997 ft | 553 kts | 76° |
| 2026-05-07 22:40 | 32.56051 | -87.84560 | 34998 ft | 552 kts | 76° |
| 2026-05-07 22:41 | 32.57721 | -87.75688 | 34995 ft | 553 kts | 76° |
| 2026-05-07 22:41 | 32.59372 | -87.66817 | 34994 ft | 553 kts | 76° |
| 2026-05-07 22:42 | 32.61021 | -87.57954 | 34992 ft | 553 kts | 76° |
| 2026-05-07 22:42 | 32.62667 | -87.49074 | 34989 ft | 553 kts | 76° |
| 2026-05-07 22:43 | 32.64311 | -87.40157 | 34985 ft | 554 kts | 76° |
| 2026-05-07 22:43 | 32.65942 | -87.31284 | 34978 ft | 553 kts | 77° |
| 2026-05-07 22:44 | 32.67580 | -87.22329 | 34976 ft | 555 kts | 77° |
| 2026-05-07 22:44 | 32.69203 | -87.13405 | 34973 ft | 555 kts | 77° |
| 2026-05-07 22:45 | 32.70821 | -87.04487 | 34972 ft | 554 kts | 76° |
| 2026-05-07 22:45 | 32.72441 | -86.95537 | 34971 ft | 555 kts | 77° |
| 2026-05-07 22:46 | 32.74046 | -86.86594 | 34975 ft | 554 kts | 76° |
| 2026-05-07 22:46 | 32.75648 | -86.77668 | 34976 ft | 555 kts | 77° |
| 2026-05-07 22:47 | 32.77235 | -86.68744 | 34975 ft | 555 kts | 76° |
| 2026-05-07 22:47 | 32.78828 | -86.59776 | 34744 ft | 555 kts | 76° |
| 2026-05-07 22:47 | 32.79619 | -86.55319 | 34466 ft | 553 kts | 77° |
| 2026-05-07 22:48 | 32.80404 | -86.50885 | 34189 ft | 550 kts | 77° |
| 2026-05-07 22:48 | 32.81179 | -86.46471 | 33915 ft | 548 kts | 76° |
| 2026-05-07 22:48 | 32.81955 | -86.42045 | 33632 ft | 547 kts | 77° |
| 2026-05-07 22:48 | 32.82737 | -86.37592 | 33271 ft | 548 kts | 77° |
| 2026-05-07 22:49 | 32.83510 | -86.33190 | 32795 ft | 548 kts | 77° |
| 2026-05-07 22:49 | 32.84287 | -86.28725 | 32205 ft | 547 kts | 77° |
| 2026-05-07 22:49 | 32.85052 | -86.24322 | 31556 ft | 547 kts | 77° |
| 2026-05-07 22:49 | 32.85813 | -86.19942 | 30884 ft | 547 kts | 77° |
| 2026-05-07 22:50 | 32.86585 | -86.15489 | 30194 ft | 547 kts | 77° |
| 2026-05-07 22:50 | 32.87337 | -86.11124 | 29498 ft | 547 kts | 76° |
| 2026-05-07 22:50 | 32.88100 | -86.06692 | 28829 ft | 546 kts | 76° |
| 2026-05-07 22:50 | 32.88851 | -86.02322 | 28367 ft | 539 kts | 77° |
| 2026-05-07 22:51 | 32.89603 | -85.97971 | 27895 ft | 533 kts | 76° |
| 2026-05-07 22:51 | 32.90336 | -85.93684 | 27410 ft | 528 kts | 77° |
| 2026-05-07 22:51 | 32.91062 | -85.89444 | 26940 ft | 522 kts | 77° |
| 2026-05-07 22:51 | 32.91782 | -85.85246 | 26458 ft | 517 kts | 77° |
| 2026-05-07 22:52 | 32.92486 | -85.81125 | 25993 ft | 512 kts | 77° |
| 2026-05-07 22:52 | 32.93196 | -85.76952 | 25509 ft | 507 kts | 77° |
| 2026-05-07 22:52 | 32.93879 | -85.72920 | 25048 ft | 503 kts | 77° |
| 2026-05-07 22:52 | 32.94568 | -85.68854 | 24572 ft | 499 kts | 77° |
| 2026-05-07 22:53 | 32.95245 | -85.64842 | 24110 ft | 494 kts | 77° |
| 2026-05-07 22:53 | 32.95924 | -85.60809 | 23641 ft | 490 kts | 77° |
| 2026-05-07 22:53 | 32.96588 | -85.56886 | 23182 ft | 487 kts | 77° |
| 2026-05-07 22:53 | 32.97249 | -85.52947 | 22714 ft | 484 kts | 77° |
| 2026-05-07 22:54 | 32.97908 | -85.49012 | 22256 ft | 480 kts | 77° |
| 2026-05-07 22:54 | 32.98555 | -85.45153 | 21794 ft | 478 kts | 77° |
| 2026-05-07 22:54 | 32.99197 | -85.41312 | 21331 ft | 475 kts | 77° |
| 2026-05-07 22:54 | 32.99836 | -85.37483 | 20865 ft | 473 kts | 77° |
| 2026-05-07 22:55 | 33.00475 | -85.33640 | 20394 ft | 471 kts | 78° |
| 2026-05-07 22:55 | 33.01115 | -85.29797 | 19913 ft | 468 kts | 78° |
| 2026-05-07 22:55 | 33.01745 | -85.26006 | 19424 ft | 465 kts | 77° |
| 2026-05-07 22:55 | 33.02721 | -85.22405 | 18919 ft | 459 kts | 61° |
| 2026-05-07 22:56 | 33.04409 | -85.19232 | 18439 ft | 446 kts | 44° |
| 2026-05-07 22:56 | 33.06459 | -85.16526 | 17972 ft | 439 kts | 39° |
| 2026-05-07 22:56 | 33.08567 | -85.13942 | 17472 ft | 437 kts | 38° |
| 2026-05-07 22:56 | 33.10687 | -85.11335 | 17003 ft | 436 kts | 39° |
| 2026-05-07 22:57 | 33.12777 | -85.08701 | 16526 ft | 434 kts | 39° |
| 2026-05-07 22:57 | 33.14852 | -85.06031 | 16057 ft | 432 kts | 40° |
| 2026-05-07 22:57 | 33.16877 | -85.03399 | 15592 ft | 429 kts | 40° |
| 2026-05-07 22:57 | 33.18878 | -85.00794 | 15128 ft | 426 kts | 39° |
| 2026-05-07 22:58 | 33.20850 | -84.98226 | 14668 ft | 422 kts | 40° |
| 2026-05-07 22:58 | 33.22837 | -84.95638 | 14203 ft | 419 kts | 39° |
| 2026-05-07 22:58 | 33.24799 | -84.93081 | 13724 ft | 415 kts | 39° |
| 2026-05-07 22:58 | 33.26723 | -84.90573 | 13258 ft | 411 kts | 39° |
| 2026-05-07 22:59 | 33.28640 | -84.88077 | 12788 ft | 407 kts | 40° |
| 2026-05-07 22:59 | 33.30547 | -84.85593 | 12321 ft | 403 kts | 40° |
| 2026-05-07 22:59 | 33.32441 | -84.83191 | 12023 ft | 391 kts | 38° |
| 2026-05-07 22:59 | 33.34351 | -84.80930 | 11992 ft | 380 kts | 36° |
| 2026-05-07 23:00 | 33.36235 | -84.78745 | 11989 ft | 378 kts | 36° |
| 2026-05-07 23:00 | 33.38131 | -84.76559 | 11978 ft | 378 kts | 36° |
| 2026-05-07 23:00 | 33.40010 | -84.74387 | 11980 ft | 379 kts | 36° |
| 2026-05-07 23:00 | 33.41911 | -84.72181 | 11981 ft | 379 kts | 36° |
| 2026-05-07 23:01 | 33.43802 | -84.69980 | 11982 ft | 378 kts | 36° |
| 2026-05-07 23:01 | 33.45676 | -84.67790 | 11957 ft | 365 kts | 36° |
| 2026-05-07 23:01 | 33.47444 | -84.65711 | 11974 ft | 347 kts | 35° |
| 2026-05-07 23:01 | 33.49130 | -84.63734 | 11979 ft | 331 kts | 35° |
| 2026-05-07 23:02 | 33.50744 | -84.61844 | 11978 ft | 315 kts | 34° |
| 2026-05-07 23:02 | 33.52243 | -84.60024 | 11979 ft | 304 kts | 41° |
| 2026-05-07 23:02 | 33.53355 | -84.57816 | 11978 ft | 315 kts | 63° |
| 2026-05-07 23:02 | 33.53845 | -84.55242 | 11985 ft | 323 kts | 84° |
| 2026-05-07 23:03 | 33.53872 | -84.52539 | 11994 ft | 325 kts | 90° |
| 2026-05-07 23:03 | 33.53786 | -84.49834 | 11889 ft | 321 kts | 91° |
| 2026-05-07 23:03 | 33.53715 | -84.47193 | 11577 ft | 320 kts | 90° |
| 2026-05-07 23:03 | 33.53679 | -84.44524 | 11276 ft | 318 kts | 88° |
| 2026-05-07 23:04 | 33.53668 | -84.41891 | 10987 ft | 315 kts | 88° |
| 2026-05-07 23:04 | 33.53672 | -84.39301 | 10711 ft | 312 kts | 88° |
| 2026-05-07 23:04 | 33.53678 | -84.36695 | 10434 ft | 309 kts | 88° |
| 2026-05-07 23:04 | 33.53681 | -84.34164 | 10173 ft | 306 kts | 89° |
| 2026-05-07 23:05 | 33.53682 | -84.31599 | 9865 ft | 303 kts | 89° |
| 2026-05-07 23:05 | 33.53683 | -84.29082 | 9569 ft | 301 kts | 88° |
| 2026-05-07 23:05 | 33.53685 | -84.26579 | 9262 ft | 299 kts | 88° |
| 2026-05-07 23:05 | 33.53689 | -84.24083 | 8915 ft | 295 kts | 89° |
| 2026-05-07 23:06 | 33.53691 | -84.21647 | 8508 ft | 293 kts | 88° |
| 2026-05-07 23:06 | 33.53693 | -84.19209 | 8149 ft | 291 kts | 89° |
| 2026-05-07 23:06 | 33.53693 | -84.16792 | 7857 ft | 288 kts | 88° |
| 2026-05-07 23:06 | 33.53695 | -84.14428 | 7663 ft | 280 kts | 88° |
| 2026-05-07 23:07 | 33.53888 | -84.12132 | 7421 ft | 270 kts | 67° |
| 2026-05-07 23:07 | 33.54828 | -84.10274 | 7156 ft | 251 kts | 36° |
| 2026-05-07 23:07 | 33.56274 | -84.09318 | 6934 ft | 223 kts | 6° |
| 2026-05-07 23:07 | 33.57792 | -84.09074 | 6435 ft | 221 kts | 356° |
| 2026-05-07 23:08 | 33.59292 | -84.08998 | 6170 ft | 208 kts | 349° |
| 2026-05-07 23:08 | 33.60558 | -84.09547 | 5916 ft | 183 kts | 315° |
| 2026-05-07 23:08 | 33.61289 | -84.10749 | 5758 ft | 179 kts | 297° |
| 2026-05-07 23:08 | 33.61865 | -84.12079 | 5542 ft | 178 kts | 295° |
| 2026-05-07 23:09 | 33.62383 | -84.13379 | 5329 ft | 169 kts | 292° |
| 2026-05-07 23:09 | 33.62774 | -84.14691 | 5126 ft | 167 kts | 285° |
| 2026-05-07 23:09 | 33.62994 | -84.16062 | 4945 ft | 168 kts | 279° |
| 2026-05-07 23:09 | 33.63100 | -84.17454 | 4782 ft | 169 kts | 276° |
| 2026-05-07 23:10 | 33.63164 | -84.18872 | 4603 ft | 169 kts | 275° |
| 2026-05-07 23:10 | 33.63194 | -84.20267 | 4386 ft | 169 kts | 274° |
| 2026-05-07 23:10 | 33.63205 | -84.21687 | 4162 ft | 169 kts | 273° |
| 2026-05-07 23:10 | 33.63208 | -84.23100 | 3941 ft | 170 kts | 273° |
| 2026-05-07 23:11 | 33.63206 | -84.24526 | 3720 ft | 171 kts | 273° |
| 2026-05-07 23:11 | 33.63202 | -84.25936 | 3504 ft | 172 kts | 273° |
| 2026-05-07 23:11 | 33.63197 | -84.27376 | 3279 ft | 172 kts | 273° |
| 2026-05-07 23:11 | 33.63194 | -84.28813 | 3053 ft | 170 kts | 273° |
| 2026-05-07 23:12 | 33.63190 | -84.30190 | 2823 ft | 160 kts | 273° |
| 2026-05-07 23:12 | 33.63186 | -84.31451 | 2614 ft | 144 kts | 274° |
| 2026-05-07 23:12 | 33.63185 | -84.32646 | 2458 ft | 142 kts | 273° |
| 2026-05-07 23:12 | 33.63185 | -84.33821 | 2277 ft | 140 kts | 273° |
| 2026-05-07 23:13 | 33.63184 | -84.34982 | 2102 ft | 140 kts | 273° |
| 2026-05-07 23:13 | 33.63183 | -84.36153 | 1920 ft | 139 kts | 272° |
| 2026-05-07 23:13 | 33.63182 | -84.37328 | 1732 ft | 139 kts | 272° |
| 2026-05-07 23:13 | 33.63181 | -84.38485 | 1548 ft | 138 kts | 273° |
| 2026-05-07 23:14 | 33.63182 | -84.39638 | 1360 ft | 138 kts | 273° |
| 2026-05-07 23:14 | 33.63180 | -84.40782 | 1191 ft | 137 kts | 273° |
| 2026-05-07 23:14 | 33.63176 | -84.41927 | 1015 ft | 137 kts | 272° |
| 2026-05-07 23:14 | 33.63180 | -84.43002 | 1002 ft | 109 kts | 270° |
| 2026-05-07 23:15 | 33.63182 | -84.43713 | 1011 ft | 58 kts | 270° |
| 2026-05-07 23:15 | 33.63195 | -84.44059 | 1016 ft | 32 kts | 287° |
| 2026-05-07 23:15 | 33.63275 | -84.44253 | 1018 ft | 15 kts | 312° |
| 2026-05-07 23:15 | 33.63352 | -84.44237 | 1018 ft | 11 kts | 26° |
| 2026-05-07 23:16 | 33.63422 | -84.44193 | 1018 ft | 11 kts | 5° |
| 2026-05-07 23:16 | 33.63506 | -84.44194 | 1019 ft | 12 kts | 358° |
| 2026-05-07 23:16 | 33.63592 | -84.44194 | 1019 ft | 12 kts | 2° |
| 2026-05-07 23:16 | 33.63663 | -84.44148 | 1019 ft | 12 kts | 49° |
| 2026-05-07 23:17 | 33.63745 | -84.44118 | 1019 ft | 13 kts | 0° |
| 2026-05-07 23:17 | 33.63783 | -84.44164 | 1020 ft | 8 kts | 269° |
| 2026-05-07 23:17 | 33.63783 | -84.44196 | 1020 ft | 0 kts | 271° |